sensor_id;sensor_type;location;lat;lon;timestamp;P1;durP1;ratioP1;P2;durP2;ratioP2
16254;SDS011;8235;52.198;9.904;2023-09-19T00:00:30;1.80;;;0.90;;
16254;SDS011;8235;52.198;9.904;2023-09-19T00:02:58;0.80;;;0.60;;
16254;SDS011;8235;52.198;9.904;2023-09-19T00:05:26;1.93;;;0.90;;
16254;SDS011;8235;52.198;9.904;2023-09-19T00:07:55;1.27;;;0.97;;
16254;SDS011;8235;52.198;9.904;2023-09-19T00:10:23;1.13;;;0.70;;
16254;SDS011;8235;52.198;9.904;2023-09-19T00:12:52;1.73;;;1.10;;
16254;SDS011;8235;52.198;9.904;2023-09-19T00:15:20;1.60;;;0.93;;
16254;SDS011;8235;52.198;9.904;2023-09-19T00:17:47;1.20;;;0.80;;
16254;SDS011;8235;52.198;9.904;2023-09-19T00:20:14;1.27;;;0.93;;
16254;SDS011;8235;52.198;9.904;2023-09-19T00:22:43;2.07;;;1.20;;
16254;SDS011;8235;52.198;9.904;2023-09-19T00:25:10;2.00;;;1.10;;
16254;SDS011;8235;52.198;9.904;2023-09-19T00:27:37;1.70;;;1.20;;
16254;SDS011;8235;52.198;9.904;2023-09-19T00:30:07;2.17;;;1.07;;
16254;SDS011;8235;52.198;9.904;2023-09-19T00:32:39;3.23;;;1.40;;
16254;SDS011;8235;52.198;9.904;2023-09-19T00:35:06;2.00;;;1.27;;
16254;SDS011;8235;52.198;9.904;2023-09-19T00:37:33;3.00;;;1.30;;
16254;SDS011;8235;52.198;9.904;2023-09-19T00:40:02;3.27;;;1.70;;
16254;SDS011;8235;52.198;9.904;2023-09-19T00:42:29;3.80;;;2.00;;
16254;SDS011;8235;52.198;9.904;2023-09-19T00:44:56;2.43;;;1.60;;
16254;SDS011;8235;52.198;9.904;2023-09-19T00:47:22;3.00;;;1.90;;
16254;SDS011;8235;52.198;9.904;2023-09-19T00:49:50;2.20;;;1.93;;
16254;SDS011;8235;52.198;9.904;2023-09-19T00:52:17;3.17;;;1.70;;
16254;SDS011;8235;52.198;9.904;2023-09-19T00:54:45;2.17;;;1.70;;
16254;SDS011;8235;52.198;9.904;2023-09-19T00:57:14;2.50;;;1.80;;
16254;SDS011;8235;52.198;9.904;2023-09-19T00:59:42;2.30;;;2.10;;
16254;SDS011;8235;52.198;9.904;2023-09-19T01:02:09;2.63;;;1.90;;
16254;SDS011;8235;52.198;9.904;2023-09-19T01:04:39;6.13;;;2.87;;
16254;SDS011;8235;52.198;9.904;2023-09-19T01:07:06;4.70;;;2.27;;
16254;SDS011;8235;52.198;9.904;2023-09-19T01:09:33;3.27;;;2.40;;
16254;SDS011;8235;52.198;9.904;2023-09-19T01:12:01;4.87;;;3.17;;
16254;SDS011;8235;52.198;9.904;2023-09-19T01:14:34;3.27;;;2.60;;
16254;SDS011;8235;52.198;9.904;2023-09-19T01:17:09;4.13;;;2.90;;
16254;SDS011;8235;52.198;9.904;2023-09-19T01:22:56;3.83;;;2.90;;
16254;SDS011;8235;52.198;9.904;2023-09-19T01:25:33;2.90;;;2.60;;
16254;SDS011;8235;52.198;9.904;2023-09-19T01:28:29;3.97;;;2.40;;
16254;SDS011;8235;52.198;9.904;2023-09-19T01:31:06;3.90;;;2.47;;
16254;SDS011;8235;52.198;9.904;2023-09-19T01:36:26;3.40;;;2.50;;
16254;SDS011;8235;52.198;9.904;2023-09-19T01:38:55;4.60;;;2.73;;
16254;SDS011;8235;52.198;9.904;2023-09-19T01:41:26;2.70;;;2.30;;
16254;SDS011;8235;52.198;9.904;2023-09-19T01:43:57;4.03;;;2.90;;
16254;SDS011;8235;52.198;9.904;2023-09-19T01:46:33;4.93;;;2.73;;
16254;SDS011;8235;52.198;9.904;2023-09-19T01:49:04;5.50;;;2.80;;
16254;SDS011;8235;52.198;9.904;2023-09-19T01:51:42;10.50;;;3.27;;
16254;SDS011;8235;52.198;9.904;2023-09-19T01:54:16;4.23;;;3.00;;
16254;SDS011;8235;52.198;9.904;2023-09-19T01:56:50;5.63;;;3.10;;
16254;SDS011;8235;52.198;9.904;2023-09-19T01:59:21;4.63;;;2.83;;
16254;SDS011;8235;52.198;9.904;2023-09-19T02:01:53;5.87;;;2.77;;
16254;SDS011;8235;52.198;9.904;2023-09-19T02:04:21;3.97;;;2.47;;
16254;SDS011;8235;52.198;9.904;2023-09-19T02:06:47;4.43;;;3.07;;
16254;SDS011;8235;52.198;9.904;2023-09-19T02:09:14;6.60;;;3.27;;
16254;SDS011;8235;52.198;9.904;2023-09-19T02:11:41;6.30;;;2.93;;
16254;SDS011;8235;52.198;9.904;2023-09-19T02:14:07;4.93;;;2.70;;
16254;SDS011;8235;52.198;9.904;2023-09-19T02:16:34;6.23;;;2.87;;
16254;SDS011;8235;52.198;9.904;2023-09-19T02:19:02;5.20;;;2.70;;
16254;SDS011;8235;52.198;9.904;2023-09-19T02:21:30;4.63;;;2.80;;
16254;SDS011;8235;52.198;9.904;2023-09-19T02:23:57;3.13;;;2.60;;
16254;SDS011;8235;52.198;9.904;2023-09-19T02:26:24;7.37;;;3.20;;
16254;SDS011;8235;52.198;9.904;2023-09-19T02:28:51;3.23;;;2.70;;
16254;SDS011;8235;52.198;9.904;2023-09-19T02:31:18;7.60;;;2.97;;
16254;SDS011;8235;52.198;9.904;2023-09-19T02:33:44;6.03;;;2.90;;
16254;SDS011;8235;52.198;9.904;2023-09-19T02:36:12;6.87;;;3.17;;
16254;SDS011;8235;52.198;9.904;2023-09-19T02:38:42;6.60;;;2.80;;
16254;SDS011;8235;52.198;9.904;2023-09-19T02:41:08;5.70;;;3.07;;
16254;SDS011;8235;52.198;9.904;2023-09-19T02:43:35;5.43;;;3.10;;
16254;SDS011;8235;52.198;9.904;2023-09-19T02:46:02;4.93;;;3.03;;
16254;SDS011;8235;52.198;9.904;2023-09-19T02:48:28;4.37;;;3.20;;
16254;SDS011;8235;52.198;9.904;2023-09-19T02:50:57;5.80;;;3.30;;
16254;SDS011;8235;52.198;9.904;2023-09-19T02:53:25;5.67;;;3.50;;
16254;SDS011;8235;52.198;9.904;2023-09-19T02:55:52;5.93;;;3.67;;
16254;SDS011;8235;52.198;9.904;2023-09-19T02:58:19;5.60;;;3.27;;
16254;SDS011;8235;52.198;9.904;2023-09-19T03:00:45;6.73;;;3.67;;
16254;SDS011;8235;52.198;9.904;2023-09-19T03:03:12;4.07;;;3.27;;
16254;SDS011;8235;52.198;9.904;2023-09-19T03:05:41;4.03;;;2.70;;
16254;SDS011;8235;52.198;9.904;2023-09-19T03:08:12;4.77;;;2.80;;
16254;SDS011;8235;52.198;9.904;2023-09-19T03:10:41;5.40;;;2.50;;
16254;SDS011;8235;52.198;9.904;2023-09-19T03:13:07;3.83;;;2.40;;
16254;SDS011;8235;52.198;9.904;2023-09-19T03:15:34;4.53;;;2.80;;
16254;SDS011;8235;52.198;9.904;2023-09-19T03:18:03;4.70;;;2.67;;
16254;SDS011;8235;52.198;9.904;2023-09-19T03:20:30;3.50;;;2.70;;
16254;SDS011;8235;52.198;9.904;2023-09-19T03:22:57;5.30;;;3.07;;
16254;SDS011;8235;52.198;9.904;2023-09-19T03:25:25;5.37;;;3.20;;
16254;SDS011;8235;52.198;9.904;2023-09-19T03:27:54;4.30;;;3.00;;
16254;SDS011;8235;52.198;9.904;2023-09-19T03:30:23;5.70;;;4.03;;
16254;SDS011;8235;52.198;9.904;2023-09-19T03:32:49;5.57;;;3.80;;
16254;SDS011;8235;52.198;9.904;2023-09-19T03:35:16;5.53;;;4.20;;
16254;SDS011;8235;52.198;9.904;2023-09-19T03:37:43;5.83;;;3.67;;
16254;SDS011;8235;52.198;9.904;2023-09-19T03:40:10;4.90;;;4.40;;
16254;SDS011;8235;52.198;9.904;2023-09-19T03:42:38;5.27;;;4.43;;
16254;SDS011;8235;52.198;9.904;2023-09-19T03:45:07;6.23;;;3.80;;
16254;SDS011;8235;52.198;9.904;2023-09-19T03:47:37;5.77;;;4.20;;
16254;SDS011;8235;52.198;9.904;2023-09-19T03:50:04;6.23;;;4.27;;
16254;SDS011;8235;52.198;9.904;2023-09-19T03:52:32;5.73;;;4.80;;
16254;SDS011;8235;52.198;9.904;2023-09-19T03:54:58;7.70;;;4.53;;
16254;SDS011;8235;52.198;9.904;2023-09-19T03:57:25;7.47;;;5.50;;
16254;SDS011;8235;52.198;9.904;2023-09-19T03:59:52;9.47;;;4.90;;
16254;SDS011;8235;52.198;9.904;2023-09-19T04:02:20;9.73;;;5.07;;
16254;SDS011;8235;52.198;9.904;2023-09-19T04:04:48;6.33;;;4.73;;
16254;SDS011;8235;52.198;9.904;2023-09-19T04:07:15;8.87;;;5.50;;
16254;SDS011;8235;52.198;9.904;2023-09-19T04:09:41;7.53;;;5.27;;
16254;SDS011;8235;52.198;9.904;2023-09-19T04:12:08;8.90;;;4.87;;
16254;SDS011;8235;52.198;9.904;2023-09-19T04:14:34;6.87;;;4.70;;
16254;SDS011;8235;52.198;9.904;2023-09-19T04:17:01;8.13;;;4.87;;
16254;SDS011;8235;52.198;9.904;2023-09-19T04:19:28;5.83;;;5.23;;
16254;SDS011;8235;52.198;9.904;2023-09-19T04:21:55;6.27;;;5.40;;
16254;SDS011;8235;52.198;9.904;2023-09-19T04:24:21;8.60;;;4.93;;
16254;SDS011;8235;52.198;9.904;2023-09-19T04:26:48;10.20;;;5.27;;
16254;SDS011;8235;52.198;9.904;2023-09-19T04:29:14;7.07;;;5.23;;
16254;SDS011;8235;52.198;9.904;2023-09-19T04:31:41;9.03;;;5.90;;
16254;SDS011;8235;52.198;9.904;2023-09-19T04:34:09;9.47;;;5.00;;
16254;SDS011;8235;52.198;9.904;2023-09-19T04:36:37;6.93;;;4.77;;
16254;SDS011;8235;52.198;9.904;2023-09-19T04:39:03;9.80;;;4.87;;
16254;SDS011;8235;52.198;9.904;2023-09-19T04:41:32;7.70;;;4.63;;
16254;SDS011;8235;52.198;9.904;2023-09-19T04:43:59;9.90;;;4.97;;
16254;SDS011;8235;52.198;9.904;2023-09-19T04:46:25;8.30;;;4.73;;
16254;SDS011;8235;52.198;9.904;2023-09-19T04:48:52;8.20;;;5.00;;
16254;SDS011;8235;52.198;9.904;2023-09-19T04:51:18;7.63;;;5.07;;
16254;SDS011;8235;52.198;9.904;2023-09-19T04:53:47;9.43;;;5.00;;
16254;SDS011;8235;52.198;9.904;2023-09-19T04:56:14;6.70;;;4.40;;
16254;SDS011;8235;52.198;9.904;2023-09-19T04:58:40;9.27;;;4.87;;
16254;SDS011;8235;52.198;9.904;2023-09-19T05:01:07;4.50;;;3.80;;
16254;SDS011;8235;52.198;9.904;2023-09-19T05:03:36;5.00;;;3.80;;
16254;SDS011;8235;52.198;9.904;2023-09-19T05:06:03;7.57;;;4.13;;
16254;SDS011;8235;52.198;9.904;2023-09-19T05:08:30;6.23;;;4.17;;
16254;SDS011;8235;52.198;9.904;2023-09-19T05:10:58;6.80;;;3.90;;
16254;SDS011;8235;52.198;9.904;2023-09-19T05:13:27;7.13;;;4.20;;
16254;SDS011;8235;52.198;9.904;2023-09-19T05:15:54;6.53;;;3.90;;
16254;SDS011;8235;52.198;9.904;2023-09-19T05:18:20;9.57;;;4.50;;
16254;SDS011;8235;52.198;9.904;2023-09-19T05:20:47;6.57;;;4.10;;
16254;SDS011;8235;52.198;9.904;2023-09-19T05:23:14;8.60;;;4.57;;
16254;SDS011;8235;52.198;9.904;2023-09-19T05:25:41;7.87;;;4.20;;
16254;SDS011;8235;52.198;9.904;2023-09-19T05:28:10;7.70;;;4.47;;
16254;SDS011;8235;52.198;9.904;2023-09-19T05:30:40;6.10;;;4.53;;
16254;SDS011;8235;52.198;9.904;2023-09-19T05:33:08;8.03;;;5.40;;
16254;SDS011;8235;52.198;9.904;2023-09-19T05:35:34;8.53;;;4.67;;
16254;SDS011;8235;52.198;9.904;2023-09-19T05:38:02;9.50;;;4.53;;
16254;SDS011;8235;52.198;9.904;2023-09-19T05:40:30;11.03;;;4.93;;
16254;SDS011;8235;52.198;9.904;2023-09-19T05:42:57;8.70;;;4.63;;
16254;SDS011;8235;52.198;9.904;2023-09-19T05:45:24;7.93;;;4.00;;
16254;SDS011;8235;52.198;9.904;2023-09-19T05:47:52;7.53;;;4.53;;
16254;SDS011;8235;52.198;9.904;2023-09-19T05:50:20;5.57;;;3.80;;
16254;SDS011;8235;52.198;9.904;2023-09-19T05:52:52;11.50;;;4.73;;
16254;SDS011;8235;52.198;9.904;2023-09-19T05:55:21;9.40;;;4.53;;
16254;SDS011;8235;52.198;9.904;2023-09-19T05:57:49;9.47;;;3.53;;
16254;SDS011;8235;52.198;9.904;2023-09-19T06:00:17;8.00;;;3.60;;
16254;SDS011;8235;52.198;9.904;2023-09-19T06:02:45;9.37;;;4.30;;
16254;SDS011;8235;52.198;9.904;2023-09-19T06:05:14;8.57;;;4.50;;
16254;SDS011;8235;52.198;9.904;2023-09-19T06:07:41;7.70;;;3.77;;
16254;SDS011;8235;52.198;9.904;2023-09-19T06:10:08;7.80;;;4.00;;
16254;SDS011;8235;52.198;9.904;2023-09-19T06:12:37;7.17;;;3.87;;
16254;SDS011;8235;52.198;9.904;2023-09-19T06:15:04;6.23;;;3.53;;
16254;SDS011;8235;52.198;9.904;2023-09-19T06:17:33;7.87;;;3.50;;
16254;SDS011;8235;52.198;9.904;2023-09-19T06:20:04;6.67;;;3.93;;
16254;SDS011;8235;52.198;9.904;2023-09-19T06:22:37;9.53;;;4.10;;
16254;SDS011;8235;52.198;9.904;2023-09-19T06:25:06;8.13;;;3.63;;
16254;SDS011;8235;52.198;9.904;2023-09-19T06:27:36;7.33;;;3.50;;
16254;SDS011;8235;52.198;9.904;2023-09-19T06:30:03;6.57;;;3.80;;
16254;SDS011;8235;52.198;9.904;2023-09-19T06:32:31;6.97;;;3.50;;
16254;SDS011;8235;52.198;9.904;2023-09-19T06:34:58;9.73;;;3.60;;
16254;SDS011;8235;52.198;9.904;2023-09-19T06:37:27;12.67;;;4.40;;
16254;SDS011;8235;52.198;9.904;2023-09-19T06:39:54;6.57;;;3.30;;
16254;SDS011;8235;52.198;9.904;2023-09-19T06:42:22;10.53;;;3.87;;
16254;SDS011;8235;52.198;9.904;2023-09-19T06:44:48;8.57;;;3.77;;
16254;SDS011;8235;52.198;9.904;2023-09-19T06:47:15;6.37;;;3.10;;
16254;SDS011;8235;52.198;9.904;2023-09-19T06:49:42;10.80;;;4.23;;
16254;SDS011;8235;52.198;9.904;2023-09-19T06:52:09;10.10;;;3.17;;
16254;SDS011;8235;52.198;9.904;2023-09-19T06:54:36;10.57;;;3.57;;
16254;SDS011;8235;52.198;9.904;2023-09-19T06:57:05;7.67;;;3.60;;
16254;SDS011;8235;52.198;9.904;2023-09-19T06:59:34;6.63;;;2.67;;
16254;SDS011;8235;52.198;9.904;2023-09-19T07:02:01;8.90;;;2.60;;
16254;SDS011;8235;52.198;9.904;2023-09-19T07:04:27;6.53;;;2.87;;
16254;SDS011;8235;52.198;9.904;2023-09-19T07:06:54;8.50;;;2.33;;
16254;SDS011;8235;52.198;9.904;2023-09-19T07:09:20;5.53;;;2.17;;
16254;SDS011;8235;52.198;9.904;2023-09-19T07:11:48;6.13;;;2.33;;
16254;SDS011;8235;52.198;9.904;2023-09-19T07:14:16;9.07;;;2.20;;
16254;SDS011;8235;52.198;9.904;2023-09-19T07:16:43;10.60;;;2.10;;
16254;SDS011;8235;52.198;9.904;2023-09-19T07:19:12;6.30;;;1.80;;
16254;SDS011;8235;52.198;9.904;2023-09-19T07:21:40;6.67;;;2.10;;
16254;SDS011;8235;52.198;9.904;2023-09-19T07:24:07;7.10;;;1.70;;
16254;SDS011;8235;52.198;9.904;2023-09-19T07:26:34;7.97;;;2.00;;
16254;SDS011;8235;52.198;9.904;2023-09-19T07:29:01;6.57;;;2.00;;
16254;SDS011;8235;52.198;9.904;2023-09-19T07:31:28;7.50;;;2.33;;
16254;SDS011;8235;52.198;9.904;2023-09-19T07:33:56;6.43;;;2.50;;
16254;SDS011;8235;52.198;9.904;2023-09-19T07:36:22;9.43;;;1.60;;
16254;SDS011;8235;52.198;9.904;2023-09-19T07:38:49;5.73;;;1.57;;
16254;SDS011;8235;52.198;9.904;2023-09-19T07:41:15;6.07;;;1.70;;
16254;SDS011;8235;52.198;9.904;2023-09-19T07:43:42;6.63;;;1.93;;
16254;SDS011;8235;52.198;9.904;2023-09-19T07:46:10;6.37;;;1.43;;
16254;SDS011;8235;52.198;9.904;2023-09-19T07:48:37;7.47;;;2.03;;
16254;SDS011;8235;52.198;9.904;2023-09-19T07:51:05;5.57;;;1.90;;
16254;SDS011;8235;52.198;9.904;2023-09-19T07:53:33;7.83;;;2.07;;
16254;SDS011;8235;52.198;9.904;2023-09-19T07:56:04;8.07;;;1.40;;
16254;SDS011;8235;52.198;9.904;2023-09-19T07:58:32;4.17;;;1.47;;
16254;SDS011;8235;52.198;9.904;2023-09-19T08:01:03;4.63;;;1.50;;
16254;SDS011;8235;52.198;9.904;2023-09-19T08:03:32;9.43;;;1.47;;
16254;SDS011;8235;52.198;9.904;2023-09-19T08:05:59;4.20;;;1.47;;
16254;SDS011;8235;52.198;9.904;2023-09-19T08:08:26;7.50;;;1.40;;
16254;SDS011;8235;52.198;9.904;2023-09-19T08:10:53;5.63;;;1.40;;
16254;SDS011;8235;52.198;9.904;2023-09-19T08:13:21;5.47;;;1.70;;
16254;SDS011;8235;52.198;9.904;2023-09-19T08:15:48;6.10;;;1.53;;
16254;SDS011;8235;52.198;9.904;2023-09-19T08:18:16;4.10;;;1.17;;
16254;SDS011;8235;52.198;9.904;2023-09-19T08:20:48;6.53;;;1.57;;
16254;SDS011;8235;52.198;9.904;2023-09-19T08:23:16;7.17;;;1.60;;
16254;SDS011;8235;52.198;9.904;2023-09-19T08:25:43;3.80;;;1.73;;
16254;SDS011;8235;52.198;9.904;2023-09-19T08:28:10;5.97;;;1.70;;
16254;SDS011;8235;52.198;9.904;2023-09-19T08:30:37;7.93;;;1.70;;
16254;SDS011;8235;52.198;9.904;2023-09-19T08:33:05;5.40;;;2.00;;
16254;SDS011;8235;52.198;9.904;2023-09-19T08:35:32;6.80;;;1.97;;
16254;SDS011;8235;52.198;9.904;2023-09-19T08:38:01;6.73;;;1.57;;
16254;SDS011;8235;52.198;9.904;2023-09-19T08:40:29;4.70;;;1.47;;
16254;SDS011;8235;52.198;9.904;2023-09-19T08:42:58;8.17;;;1.50;;
16254;SDS011;8235;52.198;9.904;2023-09-19T08:45:25;7.23;;;1.90;;
16254;SDS011;8235;52.198;9.904;2023-09-19T08:47:54;7.23;;;1.70;;
16254;SDS011;8235;52.198;9.904;2023-09-19T08:50:28;4.53;;;1.53;;
16254;SDS011;8235;52.198;9.904;2023-09-19T08:52:56;5.23;;;1.43;;
16254;SDS011;8235;52.198;9.904;2023-09-19T08:55:30;7.73;;;1.50;;
16254;SDS011;8235;52.198;9.904;2023-09-19T08:57:59;5.13;;;1.20;;
16254;SDS011;8235;52.198;9.904;2023-09-19T09:00:27;6.40;;;1.40;;
16254;SDS011;8235;52.198;9.904;2023-09-19T09:02:55;6.50;;;1.50;;
16254;SDS011;8235;52.198;9.904;2023-09-19T09:05:23;3.63;;;1.40;;
16254;SDS011;8235;52.198;9.904;2023-09-19T09:07:51;4.07;;;1.07;;
16254;SDS011;8235;52.198;9.904;2023-09-19T09:10:22;4.70;;;1.23;;
16254;SDS011;8235;52.198;9.904;2023-09-19T09:12:49;4.27;;;1.30;;
16254;SDS011;8235;52.198;9.904;2023-09-19T09:15:18;5.13;;;1.50;;
16254;SDS011;8235;52.198;9.904;2023-09-19T09:17:47;4.90;;;1.20;;
16254;SDS011;8235;52.198;9.904;2023-09-19T09:20:15;4.27;;;1.27;;
16254;SDS011;8235;52.198;9.904;2023-09-19T09:22:49;5.53;;;1.60;;
16254;SDS011;8235;52.198;9.904;2023-09-19T09:25:17;5.77;;;1.10;;
16254;SDS011;8235;52.198;9.904;2023-09-19T09:27:45;4.93;;;1.40;;
16254;SDS011;8235;52.198;9.904;2023-09-19T09:30:32;5.73;;;1.47;;
16254;SDS011;8235;52.198;9.904;2023-09-19T09:33:07;4.53;;;1.20;;
16254;SDS011;8235;52.198;9.904;2023-09-19T09:35:35;4.43;;;1.20;;
16254;SDS011;8235;52.198;9.904;2023-09-19T09:38:04;4.47;;;1.67;;
16254;SDS011;8235;52.198;9.904;2023-09-19T09:40:39;4.07;;;1.47;;
16254;SDS011;8235;52.198;9.904;2023-09-19T09:43:24;3.93;;;1.33;;
16254;SDS011;8235;52.198;9.904;2023-09-19T09:46:05;8.37;;;1.50;;
16254;SDS011;8235;52.198;9.904;2023-09-19T09:49:00;4.90;;;1.73;;
16254;SDS011;8235;52.198;9.904;2023-09-19T09:51:58;5.20;;;1.60;;
16254;SDS011;8235;52.198;9.904;2023-09-19T09:54:29;6.03;;;1.60;;
16254;SDS011;8235;52.198;9.904;2023-09-19T09:57:01;5.40;;;1.30;;
16254;SDS011;8235;52.198;9.904;2023-09-19T09:59:49;3.77;;;1.40;;
16254;SDS011;8235;52.198;9.904;2023-09-19T10:02:18;3.57;;;1.37;;
16254;SDS011;8235;52.198;9.904;2023-09-19T10:04:50;6.40;;;1.80;;
16254;SDS011;8235;52.198;9.904;2023-09-19T10:07:32;5.03;;;1.40;;
16254;SDS011;8235;52.198;9.904;2023-09-19T10:10:01;4.83;;;1.27;;
16254;SDS011;8235;52.198;9.904;2023-09-19T10:12:42;4.57;;;1.50;;
16254;SDS011;8235;52.198;9.904;2023-09-19T10:15:14;5.23;;;1.57;;
16254;SDS011;8235;52.198;9.904;2023-09-19T10:17:43;5.37;;;1.43;;
16254;SDS011;8235;52.198;9.904;2023-09-19T10:20:12;5.80;;;1.67;;
16254;SDS011;8235;52.198;9.904;2023-09-19T10:22:59;4.67;;;1.50;;
16254;SDS011;8235;52.198;9.904;2023-09-19T10:25:27;6.07;;;1.23;;
16254;SDS011;8235;52.198;9.904;2023-09-19T10:27:55;3.40;;;1.40;;
16254;SDS011;8235;52.198;9.904;2023-09-19T10:30:25;5.90;;;2.00;;
16254;SDS011;8235;52.198;9.904;2023-09-19T10:32:57;9.77;;;1.80;;
16254;SDS011;8235;52.198;9.904;2023-09-19T10:35:26;6.50;;;2.47;;
16254;SDS011;8235;52.198;9.904;2023-09-19T10:37:54;4.53;;;1.70;;
16254;SDS011;8235;52.198;9.904;2023-09-19T10:40:23;4.17;;;1.40;;
16254;SDS011;8235;52.198;9.904;2023-09-19T10:42:55;6.27;;;2.50;;
16254;SDS011;8235;52.198;9.904;2023-09-19T10:45:29;6.20;;;1.53;;
16254;SDS011;8235;52.198;9.904;2023-09-19T10:47:57;5.50;;;2.20;;
16254;SDS011;8235;52.198;9.904;2023-09-19T10:50:24;6.57;;;1.73;;
16254;SDS011;8235;52.198;9.904;2023-09-19T10:52:51;8.60;;;1.83;;
16254;SDS011;8235;52.198;9.904;2023-09-19T10:55:25;6.07;;;1.70;;
16254;SDS011;8235;52.198;9.904;2023-09-19T10:57:55;6.07;;;1.73;;
16254;SDS011;8235;52.198;9.904;2023-09-19T11:00:22;5.83;;;2.10;;
16254;SDS011;8235;52.198;9.904;2023-09-19T11:06:04;5.10;;;1.77;;
16254;SDS011;8235;52.198;9.904;2023-09-19T11:11:39;4.53;;;1.67;;
16254;SDS011;8235;52.198;9.904;2023-09-19T11:14:28;5.33;;;1.70;;
16254;SDS011;8235;52.198;9.904;2023-09-19T11:20:23;5.23;;;1.93;;
16254;SDS011;8235;52.198;9.904;2023-09-19T11:23:20;5.57;;;1.50;;
16254;SDS011;8235;52.198;9.904;2023-09-19T11:25:51;5.17;;;1.60;;
16254;SDS011;8235;52.198;9.904;2023-09-19T11:28:32;4.80;;;1.90;;
16254;SDS011;8235;52.198;9.904;2023-09-19T11:40:37;5.73;;;1.97;;
16254;SDS011;8235;52.198;9.904;2023-09-19T11:46:01;5.13;;;2.13;;
16254;SDS011;8235;52.198;9.904;2023-09-19T11:48:31;7.10;;;1.77;;
16254;SDS011;8235;52.198;9.904;2023-09-19T11:51:00;4.50;;;2.23;;
16254;SDS011;8235;52.198;9.904;2023-09-19T11:53:32;4.00;;;1.50;;
16254;SDS011;8235;52.198;9.904;2023-09-19T11:56:04;6.67;;;2.20;;
16254;SDS011;8235;52.198;9.904;2023-09-19T11:58:35;5.07;;;1.90;;
16254;SDS011;8235;52.198;9.904;2023-09-19T12:01:03;4.80;;;1.70;;
16254;SDS011;8235;52.198;9.904;2023-09-19T12:03:33;4.43;;;2.10;;
16254;SDS011;8235;52.198;9.904;2023-09-19T12:06:10;5.13;;;1.73;;
16254;SDS011;8235;52.198;9.904;2023-09-19T12:08:38;3.37;;;1.73;;
16254;SDS011;8235;52.198;9.904;2023-09-19T12:11:11;4.30;;;1.60;;
16254;SDS011;8235;52.198;9.904;2023-09-19T12:13:40;6.27;;;2.13;;
16254;SDS011;8235;52.198;9.904;2023-09-19T12:16:11;6.13;;;1.73;;
16254;SDS011;8235;52.198;9.904;2023-09-19T12:18:40;5.90;;;1.83;;
16254;SDS011;8235;52.198;9.904;2023-09-19T12:21:08;5.07;;;1.90;;
16254;SDS011;8235;52.198;9.904;2023-09-19T12:23:56;3.93;;;1.50;;
16254;SDS011;8235;52.198;9.904;2023-09-19T12:26:45;5.23;;;1.93;;
16254;SDS011;8235;52.198;9.904;2023-09-19T12:29:17;4.83;;;1.77;;
16254;SDS011;8235;52.198;9.904;2023-09-19T12:31:49;5.57;;;1.90;;
16254;SDS011;8235;52.198;9.904;2023-09-19T12:34:17;7.30;;;2.00;;
16254;SDS011;8235;52.198;9.904;2023-09-19T12:36:46;3.90;;;1.70;;
16254;SDS011;8235;52.198;9.904;2023-09-19T12:39:22;4.63;;;1.50;;
16254;SDS011;8235;52.198;9.904;2023-09-19T12:41:51;3.93;;;1.60;;
16254;SDS011;8235;52.198;9.904;2023-09-19T12:44:18;5.60;;;1.80;;
16254;SDS011;8235;52.198;9.904;2023-09-19T12:46:45;4.30;;;1.67;;
16254;SDS011;8235;52.198;9.904;2023-09-19T12:49:18;5.47;;;2.17;;
16254;SDS011;8235;52.198;9.904;2023-09-19T12:51:45;5.40;;;1.87;;
16254;SDS011;8235;52.198;9.904;2023-09-19T12:54:13;3.33;;;1.70;;
16254;SDS011;8235;52.198;9.904;2023-09-19T12:56:45;4.00;;;1.80;;
16254;SDS011;8235;52.198;9.904;2023-09-19T12:59:15;5.30;;;2.10;;
16254;SDS011;8235;52.198;9.904;2023-09-19T13:01:42;4.10;;;1.50;;
16254;SDS011;8235;52.198;9.904;2023-09-19T13:04:12;7.17;;;2.30;;
16254;SDS011;8235;52.198;9.904;2023-09-19T13:06:44;4.73;;;1.87;;
16254;SDS011;8235;52.198;9.904;2023-09-19T13:09:13;4.03;;;1.60;;
16254;SDS011;8235;52.198;9.904;2023-09-19T13:11:41;7.90;;;1.90;;
16254;SDS011;8235;52.198;9.904;2023-09-19T13:14:13;4.00;;;1.70;;
16254;SDS011;8235;52.198;9.904;2023-09-19T13:16:56;4.83;;;1.50;;
16254;SDS011;8235;52.198;9.904;2023-09-19T13:19:36;5.37;;;1.90;;
16254;SDS011;8235;52.198;9.904;2023-09-19T13:22:04;5.97;;;2.10;;
16254;SDS011;8235;52.198;9.904;2023-09-19T13:24:33;4.03;;;1.70;;
16254;SDS011;8235;52.198;9.904;2023-09-19T13:27:05;5.47;;;2.07;;
16254;SDS011;8235;52.198;9.904;2023-09-19T13:29:33;6.00;;;1.80;;
16254;SDS011;8235;52.198;9.904;2023-09-19T13:31:59;6.93;;;2.00;;
16254;SDS011;8235;52.198;9.904;2023-09-19T13:34:27;5.47;;;2.10;;
16254;SDS011;8235;52.198;9.904;2023-09-19T13:36:54;5.33;;;2.00;;
16254;SDS011;8235;52.198;9.904;2023-09-19T13:39:21;3.70;;;1.93;;
16254;SDS011;8235;52.198;9.904;2023-09-19T13:41:49;5.07;;;2.07;;
16254;SDS011;8235;52.198;9.904;2023-09-19T13:44:16;5.07;;;1.97;;
16254;SDS011;8235;52.198;9.904;2023-09-19T13:46:44;4.20;;;1.67;;
16254;SDS011;8235;52.198;9.904;2023-09-19T13:49:11;3.77;;;1.70;;
16254;SDS011;8235;52.198;9.904;2023-09-19T13:51:38;5.93;;;1.93;;
16254;SDS011;8235;52.198;9.904;2023-09-19T13:54:08;6.33;;;1.90;;
16254;SDS011;8235;52.198;9.904;2023-09-19T13:56:35;4.00;;;1.80;;
16254;SDS011;8235;52.198;9.904;2023-09-19T13:59:02;6.93;;;2.40;;
16254;SDS011;8235;52.198;9.904;2023-09-19T14:01:29;5.50;;;2.20;;
16254;SDS011;8235;52.198;9.904;2023-09-19T14:03:56;5.93;;;1.97;;
16254;SDS011;8235;52.198;9.904;2023-09-19T14:06:23;4.33;;;1.70;;
16254;SDS011;8235;52.198;9.904;2023-09-19T14:08:50;5.97;;;1.90;;
16254;SDS011;8235;52.198;9.904;2023-09-19T14:11:17;4.50;;;1.73;;
16254;SDS011;8235;52.198;9.904;2023-09-19T14:13:43;5.23;;;2.53;;
16254;SDS011;8235;52.198;9.904;2023-09-19T14:16:12;3.60;;;2.03;;
16254;SDS011;8235;52.198;9.904;2023-09-19T14:18:38;5.07;;;2.17;;
16254;SDS011;8235;52.198;9.904;2023-09-19T14:21:06;5.40;;;1.67;;
16254;SDS011;8235;52.198;9.904;2023-09-19T14:23:36;3.70;;;1.67;;
16254;SDS011;8235;52.198;9.904;2023-09-19T14:26:02;4.13;;;1.50;;
16254;SDS011;8235;52.198;9.904;2023-09-19T14:28:30;5.33;;;1.80;;
16254;SDS011;8235;52.198;9.904;2023-09-19T14:31:03;4.03;;;1.60;;
16254;SDS011;8235;52.198;9.904;2023-09-19T14:33:30;4.57;;;2.00;;
16254;SDS011;8235;52.198;9.904;2023-09-19T14:35:57;3.90;;;1.83;;
16254;SDS011;8235;52.198;9.904;2023-09-19T14:38:25;5.40;;;2.10;;
16254;SDS011;8235;52.198;9.904;2023-09-19T14:40:58;3.53;;;1.73;;
16254;SDS011;8235;52.198;9.904;2023-09-19T14:43:25;5.97;;;1.50;;
16254;SDS011;8235;52.198;9.904;2023-09-19T14:45:52;6.10;;;1.70;;
16254;SDS011;8235;52.198;9.904;2023-09-19T14:48:18;7.73;;;1.77;;
16254;SDS011;8235;52.198;9.904;2023-09-19T14:50:45;5.03;;;1.93;;
16254;SDS011;8235;52.198;9.904;2023-09-19T14:53:13;4.70;;;1.80;;
16254;SDS011;8235;52.198;9.904;2023-09-19T14:55:41;3.07;;;1.53;;
16254;SDS011;8235;52.198;9.904;2023-09-19T14:58:09;2.97;;;1.20;;
16254;SDS011;8235;52.198;9.904;2023-09-19T15:00:37;3.20;;;1.50;;
16254;SDS011;8235;52.198;9.904;2023-09-19T15:03:04;3.27;;;1.47;;
16254;SDS011;8235;52.198;9.904;2023-09-19T15:05:31;5.57;;;2.03;;
16254;SDS011;8235;52.198;9.904;2023-09-19T15:07:59;3.43;;;1.20;;
16254;SDS011;8235;52.198;9.904;2023-09-19T15:10:25;3.47;;;1.60;;
16254;SDS011;8235;52.198;9.904;2023-09-19T15:12:53;3.37;;;1.20;;
16254;SDS011;8235;52.198;9.904;2023-09-19T15:15:22;3.33;;;1.30;;
16254;SDS011;8235;52.198;9.904;2023-09-19T15:17:48;2.80;;;1.23;;
16254;SDS011;8235;52.198;9.904;2023-09-19T15:20:15;2.97;;;1.10;;
16254;SDS011;8235;52.198;9.904;2023-09-19T15:22:42;2.20;;;1.13;;
16254;SDS011;8235;52.198;9.904;2023-09-19T15:25:09;6.53;;;1.60;;
16254;SDS011;8235;52.198;9.904;2023-09-19T15:27:36;4.43;;;1.60;;
16254;SDS011;8235;52.198;9.904;2023-09-19T15:30:04;2.97;;;1.33;;
16254;SDS011;8235;52.198;9.904;2023-09-19T15:32:32;2.47;;;1.20;;
16254;SDS011;8235;52.198;9.904;2023-09-19T15:34:58;3.67;;;1.20;;
16254;SDS011;8235;52.198;9.904;2023-09-19T15:37:25;2.73;;;1.27;;
16254;SDS011;8235;52.198;9.904;2023-09-19T15:39:53;4.18;;;1.30;;